createdAt,value
2017-09-05T00:00:38.077Z,0
2017-09-05T00:01:18.536Z,0
2017-09-05T00:01:58.985Z,0
2017-09-05T00:02:39.508Z,0
2017-09-05T00:03:19.960Z,0
2017-09-05T00:04:00.418Z,0
2017-09-05T00:04:40.878Z,0
2017-09-05T00:05:21.329Z,0
2017-09-05T00:06:01.770Z,0
2017-09-05T00:06:42.229Z,0
2017-09-05T00:07:22.679Z,0
2017-09-05T00:08:03.129Z,0
2017-09-05T00:08:43.581Z,0
2017-09-05T00:09:24.036Z,0
2017-09-05T00:10:04.492Z,0
2017-09-05T00:10:44.954Z,0
2017-09-05T00:11:25.408Z,0
2017-09-05T00:12:05.868Z,0
2017-09-05T00:12:46.322Z,0
2017-09-05T00:13:26.779Z,0
2017-09-05T00:14:07.231Z,0
2017-09-05T00:14:47.690Z,0
2017-09-05T00:15:28.146Z,0
2017-09-05T00:16:08.609Z,0
2017-09-05T00:16:49.057Z,0
2017-09-05T00:17:29.511Z,0
2017-09-05T00:18:09.966Z,0
2017-09-05T00:18:50.417Z,0
2017-09-05T00:19:30.871Z,0
2017-09-05T00:20:11.332Z,0
2017-09-05T00:20:51.788Z,0
2017-09-05T00:21:32.253Z,0
2017-09-05T00:22:12.707Z,0
2017-09-05T00:22:53.159Z,0
2017-09-05T00:23:33.624Z,0
2017-09-05T00:24:14.072Z,0
2017-09-05T00:24:54.523Z,0
2017-09-05T00:25:34.988Z,0
2017-09-05T00:26:15.423Z,0
2017-09-05T00:26:55.879Z,0
2017-09-05T00:27:36.338Z,0
2017-09-05T00:28:16.793Z,0
2017-09-05T00:28:57.249Z,0
2017-09-05T00:29:37.706Z,0
2017-09-05T00:30:18.161Z,0
2017-09-05T00:30:58.617Z,0
2017-09-05T00:31:39.070Z,0
2017-09-05T00:32:19.532Z,0
2017-09-05T00:32:59.985Z,0
2017-09-05T00:33:40.447Z,0
2017-09-05T00:34:20.895Z,0
2017-09-05T00:35:01.359Z,0
2017-09-05T00:35:41.810Z,0
2017-09-05T00:36:22.226Z,0
2017-09-05T00:37:02.676Z,0
2017-09-05T00:37:43.136Z,0
2017-09-05T00:38:23.587Z,0
2017-09-05T00:39:04.050Z,0
2017-09-05T00:39:44.509Z,0
2017-09-05T00:40:24.991Z,0
2017-09-05T00:41:05.454Z,0
2017-09-05T00:41:45.907Z,0
2017-09-05T00:42:26.361Z,0
2017-09-05T00:43:06.916Z,0
2017-09-05T00:43:47.386Z,0
2017-09-05T00:44:27.824Z,0
2017-09-05T00:45:08.274Z,0
2017-09-05T00:45:48.736Z,0
2017-09-05T00:46:29.185Z,0
2017-09-05T00:47:09.642Z,0
2017-09-05T00:47:50.103Z,0
2017-09-05T00:48:30.542Z,0
2017-09-05T00:49:10.993Z,0
2017-09-05T00:49:51.445Z,0
2017-09-05T00:50:31.896Z,0
2017-09-05T00:51:12.362Z,0
2017-09-05T00:51:52.820Z,0
2017-09-05T00:52:33.271Z,0
2017-09-05T00:53:13.727Z,0
2017-09-05T00:53:54.180Z,0
2017-09-05T00:54:34.627Z,0
2017-09-05T00:55:15.087Z,0
2017-09-05T00:55:55.533Z,0
2017-09-05T00:56:35.982Z,0
2017-09-05T00:57:16.431Z,0
2017-09-05T00:57:56.883Z,0
2017-09-05T00:58:37.334Z,0
2017-09-05T00:59:17.796Z,0
2017-09-05T00:59:58.263Z,0
2017-09-05T01:00:38.706Z,0
2017-09-05T01:01:19.160Z,0
2017-09-05T01:01:59.613Z,0
2017-09-05T01:02:40.069Z,0
2017-09-05T01:03:20.522Z,0
2017-09-05T01:04:01.001Z,0
2017-09-05T01:04:41.459Z,0
2017-09-05T01:05:21.915Z,0
2017-09-05T01:06:02.364Z,0
2017-09-05T01:06:42.818Z,0
2017-09-05T01:07:23.272Z,0
2017-09-05T01:08:03.730Z,0
2017-09-05T01:08:44.183Z,0
2017-09-05T01:09:24.637Z,0
2017-09-05T01:10:05.093Z,0
2017-09-05T01:10:45.559Z,0
2017-09-05T01:11:26.012Z,0
2017-09-05T01:12:06.466Z,0
2017-09-05T01:12:46.927Z,0
2017-09-05T01:13:27.388Z,0
2017-09-05T01:14:07.846Z,0
2017-09-05T01:14:48.294Z,0
2017-09-05T01:15:28.746Z,0
2017-09-05T01:16:09.207Z,0
2017-09-05T01:16:49.660Z,0
2017-09-05T01:17:30.122Z,0
2017-09-05T01:18:10.587Z,0
2017-09-05T01:18:51.039Z,0
2017-09-05T01:19:31.489Z,0
2017-09-05T01:20:11.946Z,0
2017-09-05T01:20:52.393Z,0
2017-09-05T01:21:32.848Z,0
2017-09-05T01:22:13.301Z,0
2017-09-05T01:22:53.762Z,0
2017-09-05T01:23:34.211Z,0
2017-09-05T01:24:14.665Z,0
2017-09-05T01:24:55.119Z,0
2017-09-05T01:25:35.587Z,0
2017-09-05T01:26:16.045Z,0
2017-09-05T01:26:56.496Z,0
2017-09-05T01:27:36.958Z,0
2017-09-05T01:28:17.467Z,0
2017-09-05T01:28:57.923Z,0
2017-09-05T01:29:38.378Z,0
2017-09-05T01:30:18.830Z,0
2017-09-05T01:30:59.286Z,0
2017-09-05T01:31:39.736Z,0
2017-09-05T01:32:20.181Z,0
2017-09-05T01:33:00.635Z,0
2017-09-05T01:33:41.083Z,0
2017-09-05T01:34:21.569Z,0
2017-09-05T01:35:02.033Z,0
2017-09-05T01:35:42.501Z,0
2017-09-05T01:36:22.935Z,0
2017-09-05T01:37:03.387Z,0
2017-09-05T01:37:43.869Z,0
2017-09-05T01:38:24.329Z,0
2017-09-05T01:39:04.842Z,0
2017-09-05T01:39:45.295Z,0
2017-09-05T01:40:25.742Z,0
2017-09-05T01:41:06.187Z,0
2017-09-05T01:41:46.642Z,0
2017-09-05T01:42:27.097Z,0
2017-09-05T01:43:07.553Z,0
2017-09-05T01:43:48.023Z,0
2017-09-05T01:44:28.478Z,0
2017-09-05T01:45:08.935Z,0
2017-09-05T01:45:49.391Z,0
2017-09-05T01:46:29.851Z,0
2017-09-05T01:47:10.300Z,0
2017-09-05T01:47:50.747Z,0
2017-09-05T01:48:31.198Z,0
2017-09-05T01:49:11.657Z,0
2017-09-05T01:49:52.105Z,0
2017-09-05T01:50:32.558Z,0
2017-09-05T01:51:13.007Z,0
2017-09-05T01:51:53.459Z,0
2017-09-05T01:52:33.910Z,0
2017-09-05T01:53:14.370Z,0
2017-09-05T01:53:54.821Z,0
2017-09-05T01:54:35.271Z,0
2017-09-05T01:55:15.726Z,0
2017-09-05T01:55:56.179Z,0
2017-09-05T01:56:36.628Z,0
2017-09-05T01:57:17.085Z,0
2017-09-05T01:57:57.537Z,0
2017-09-05T01:58:38.001Z,0
2017-09-05T01:59:18.457Z,0
2017-09-05T01:59:58.894Z,0
2017-09-05T02:00:39.347Z,0
2017-09-05T02:01:19.791Z,0
2017-09-05T02:02:00.241Z,0
2017-09-05T02:02:40.693Z,0
2017-09-05T02:03:21.148Z,0
2017-09-05T02:04:01.601Z,0
2017-09-05T02:04:42.051Z,0
2017-09-05T02:05:22.499Z,0
2017-09-05T02:06:02.963Z,0
2017-09-05T02:06:43.424Z,0
2017-09-05T02:07:23.884Z,0
2017-09-05T02:08:04.335Z,0
2017-09-05T02:08:44.775Z,0
2017-09-05T02:09:25.229Z,0
2017-09-05T02:10:05.702Z,0
2017-09-05T02:10:46.146Z,0
2017-09-05T02:11:26.595Z,0
2017-09-05T02:12:07.045Z,0
2017-09-05T02:12:47.488Z,0
2017-09-05T02:13:27.946Z,0
2017-09-05T02:14:08.396Z,0
2017-09-05T02:14:48.849Z,0
2017-09-05T02:15:29.311Z,0
2017-09-05T02:16:09.759Z,0
2017-09-05T02:16:50.217Z,0
2017-09-05T02:17:30.665Z,0
2017-09-05T02:18:11.117Z,0
2017-09-05T02:18:51.570Z,0
2017-09-05T02:19:32.025Z,0
2017-09-05T02:20:12.499Z,0
2017-09-05T02:20:52.951Z,0
2017-09-05T02:21:33.421Z,0
2017-09-05T02:22:13.878Z,0
2017-09-05T02:22:54.339Z,0
2017-09-05T02:23:34.791Z,0
2017-09-05T02:24:15.249Z,0
2017-09-05T02:24:55.697Z,0
2017-09-05T02:25:36.146Z,0
2017-09-05T02:26:16.596Z,0
2017-09-05T02:26:57.049Z,0
2017-09-05T02:27:37.505Z,0
2017-09-05T02:28:17.971Z,0
2017-09-05T02:28:58.425Z,0
2017-09-05T02:29:38.884Z,0
2017-09-05T02:30:19.443Z,0
2017-09-05T02:30:59.892Z,0
2017-09-05T02:31:40.346Z,0
2017-09-05T02:32:20.804Z,0
2017-09-05T02:33:01.258Z,0
2017-09-05T02:33:41.708Z,0
2017-09-05T02:34:22.153Z,0
2017-09-05T02:35:02.694Z,0
2017-09-05T02:35:43.150Z,0
2017-09-05T02:36:23.602Z,0
2017-09-05T02:37:04.148Z,0
2017-09-05T02:37:44.618Z,0
2017-09-05T02:38:25.069Z,0
2017-09-05T02:39:05.524Z,0
2017-09-05T02:39:45.991Z,0
2017-09-05T02:40:26.448Z,0
2017-09-05T02:41:06.909Z,0
2017-09-05T02:41:47.369Z,0
2017-09-05T02:42:27.820Z,0
2017-09-05T02:43:08.284Z,0
2017-09-05T02:43:48.731Z,0
2017-09-05T02:44:29.189Z,0
2017-09-05T02:45:09.651Z,0
2017-09-05T02:45:50.105Z,0
2017-09-05T02:46:30.549Z,0
2017-09-05T02:47:11.003Z,0
2017-09-05T02:47:51.446Z,0
2017-09-05T02:48:31.910Z,0
2017-09-05T02:49:12.347Z,0
2017-09-05T02:49:52.795Z,0
2017-09-05T02:50:33.251Z,0
2017-09-05T02:51:13.707Z,0
2017-09-05T02:51:54.157Z,0
2017-09-05T02:52:34.621Z,0
2017-09-05T02:53:15.091Z,0
2017-09-05T02:53:55.528Z,0
2017-09-05T02:54:35.980Z,0
2017-09-05T02:55:16.455Z,0
2017-09-05T02:55:56.910Z,0
2017-09-05T02:56:37.368Z,0
2017-09-05T02:57:17.822Z,0
2017-09-05T02:57:58.269Z,0
2017-09-05T02:58:38.722Z,0
2017-09-05T02:59:19.174Z,0
2017-09-05T02:59:59.648Z,0
2017-09-05T03:00:40.104Z,0
2017-09-05T03:01:20.562Z,0
2017-09-05T03:02:01.026Z,0
2017-09-05T03:02:41.479Z,0
2017-09-05T03:03:21.934Z,0
2017-09-05T03:04:02.387Z,0
2017-09-05T03:04:42.840Z,0
2017-09-05T03:05:23.294Z,0
2017-09-05T03:06:03.787Z,0
2017-09-05T03:06:44.251Z,0
2017-09-05T03:07:24.714Z,0
2017-09-05T03:08:05.163Z,0
2017-09-05T03:08:45.622Z,0
2017-09-05T03:09:26.069Z,0
2017-09-05T03:10:06.529Z,0
2017-09-05T03:10:46.997Z,0
2017-09-05T03:11:27.444Z,0
2017-09-05T03:12:07.898Z,0
2017-09-05T03:12:48.358Z,0
2017-09-05T03:13:28.803Z,0
2017-09-05T03:14:09.263Z,0
2017-09-05T03:14:49.713Z,0
2017-09-05T03:15:30.202Z,0
2017-09-05T03:16:10.659Z,0
2017-09-05T03:16:51.106Z,0
2017-09-05T03:17:31.567Z,0
2017-09-05T03:18:12.019Z,0
2017-09-05T03:18:52.465Z,0
2017-09-05T03:19:32.924Z,0
2017-09-05T03:20:13.375Z,0
2017-09-05T03:20:53.830Z,0
2017-09-05T03:21:34.289Z,0
2017-09-05T03:22:14.750Z,0
2017-09-05T03:22:55.227Z,0
2017-09-05T03:23:35.659Z,0
2017-09-05T03:24:16.096Z,0
2017-09-05T03:24:56.548Z,0
2017-09-05T03:25:37.008Z,0
2017-09-05T03:26:17.518Z,0
2017-09-05T03:26:57.976Z,0
2017-09-05T03:27:38.434Z,0
2017-09-05T03:28:19.011Z,0
2017-09-05T03:28:59.468Z,0
2017-09-05T03:29:39.934Z,0
2017-09-05T03:30:20.386Z,0
2017-09-05T03:31:00.824Z,0
2017-09-05T03:31:41.281Z,0
2017-09-05T03:32:21.745Z,0
2017-09-05T03:34:19.440Z,0
2017-09-05T03:34:59.896Z,0
2017-09-05T03:35:40.349Z,0
2017-09-05T03:36:20.796Z,0
2017-09-05T03:37:01.250Z,0
2017-09-05T03:37:41.706Z,0
2017-09-05T03:38:22.147Z,0
2017-09-05T03:39:02.595Z,0
2017-09-05T03:39:43.045Z,0
2017-09-05T03:40:23.515Z,0
2017-09-05T03:41:03.968Z,0
2017-09-05T03:41:44.404Z,0
2017-09-05T03:42:24.866Z,0
2017-09-05T03:43:05.327Z,0
2017-09-05T03:43:45.773Z,0
2017-09-05T03:44:26.242Z,0
2017-09-05T03:45:06.684Z,0
2017-09-05T03:45:47.145Z,0
2017-09-05T03:46:27.591Z,0
2017-09-05T03:47:08.025Z,0
2017-09-05T03:47:48.503Z,0
2017-09-05T03:48:28.957Z,0
2017-09-05T03:49:09.415Z,0
2017-09-05T03:49:49.864Z,0
2017-09-05T03:50:30.324Z,0
2017-09-05T03:51:10.780Z,0
2017-09-05T03:51:51.240Z,0
2017-09-05T03:52:31.691Z,0
2017-09-05T03:53:12.140Z,0
2017-09-05T03:53:52.590Z,0
2017-09-05T03:54:33.056Z,0
2017-09-05T03:55:13.486Z,0
2017-09-05T03:55:53.937Z,0
2017-09-05T03:56:34.389Z,0
2017-09-05T03:57:14.836Z,0
2017-09-05T03:57:55.289Z,0
2017-09-05T03:58:35.739Z,0
2017-09-05T03:59:16.196Z,0
2017-09-05T03:59:56.657Z,0
2017-09-05T04:00:37.104Z,0
2017-09-05T04:01:17.560Z,0
2017-09-05T04:01:58.006Z,0
2017-09-05T04:02:38.459Z,0
2017-09-05T04:03:18.917Z,0
2017-09-05T04:03:59.366Z,0
2017-09-05T04:04:39.879Z,0
2017-09-05T04:05:20.334Z,0
2017-09-05T04:06:00.789Z,0
2017-09-05T04:06:41.243Z,0
2017-09-05T04:07:21.775Z,0
2017-09-05T04:08:02.228Z,0
2017-09-05T04:08:42.678Z,0
2017-09-05T04:09:23.127Z,0
2017-09-05T04:10:03.567Z,0
2017-09-05T04:10:44.040Z,0
2017-09-05T04:11:24.481Z,0
2017-09-05T04:12:05.022Z,0
2017-09-05T04:12:45.556Z,0
2017-09-05T04:13:26.012Z,0
2017-09-05T04:14:06.455Z,0
2017-09-05T04:14:46.900Z,0
2017-09-05T04:15:27.353Z,0
2017-09-05T04:16:07.801Z,0
2017-09-05T04:16:48.250Z,0
2017-09-05T04:17:28.706Z,0
2017-09-05T04:18:09.165Z,0
2017-09-05T04:18:49.610Z,0
2017-09-05T04:19:30.063Z,0
2017-09-05T04:20:10.514Z,0
2017-09-05T04:20:50.965Z,0
2017-09-05T04:21:31.416Z,0
2017-09-05T04:22:11.865Z,0
2017-09-05T04:22:52.316Z,0
2017-09-05T04:23:32.782Z,0
2017-09-05T04:24:13.228Z,0
2017-09-05T04:24:53.685Z,0
2017-09-05T04:25:34.140Z,0
2017-09-05T04:26:14.591Z,0
2017-09-05T04:26:55.051Z,0
2017-09-05T04:27:35.519Z,0
2017-09-05T04:28:15.968Z,0
2017-09-05T04:28:56.411Z,0
2017-09-05T04:29:36.866Z,0
2017-09-05T04:30:17.347Z,0
2017-09-05T04:30:57.832Z,0
2017-09-05T04:31:38.286Z,0
2017-09-05T04:32:18.750Z,0
2017-09-05T04:32:59.191Z,0
2017-09-05T04:33:39.642Z,0
2017-09-05T04:34:20.099Z,0
2017-09-05T04:35:00.656Z,4
2017-09-05T04:35:41.086Z,4
2017-09-05T04:36:21.547Z,4
2017-09-05T04:37:01.990Z,4
2017-09-05T04:37:42.433Z,4
2017-09-05T04:38:22.869Z,0
2017-09-05T04:39:03.309Z,0
2017-09-05T04:39:43.762Z,0
2017-09-05T04:40:24.220Z,4
2017-09-05T04:41:04.695Z,4
2017-09-05T04:41:45.159Z,4
2017-09-05T04:42:25.598Z,4
2017-09-05T04:43:06.080Z,4
2017-09-05T04:43:46.497Z,8
2017-09-05T04:44:26.960Z,4
2017-09-05T04:45:07.418Z,4
2017-09-05T04:45:47.882Z,4
2017-09-05T04:46:28.337Z,8
2017-09-05T04:47:08.890Z,8
2017-09-05T04:47:49.345Z,8
2017-09-05T04:48:29.795Z,8
2017-09-05T04:49:10.247Z,8
2017-09-05T04:49:50.690Z,8
2017-09-05T04:50:31.145Z,12
2017-09-05T04:51:11.600Z,8
2017-09-05T04:51:52.051Z,12
2017-09-05T04:52:32.497Z,12
2017-09-05T04:53:12.952Z,16
2017-09-05T04:53:53.400Z,12
2017-09-05T04:54:33.853Z,16
2017-09-05T04:55:14.333Z,16
2017-09-05T04:55:54.757Z,16
2017-09-05T04:56:35.208Z,16
2017-09-05T04:57:15.653Z,16
2017-09-05T04:57:56.098Z,16
2017-09-05T04:58:36.555Z,20
2017-09-05T04:59:17.037Z,16
2017-09-05T04:59:57.486Z,20
2017-09-05T05:00:37.933Z,20
2017-09-05T05:01:18.381Z,20
2017-09-05T05:01:58.837Z,20
2017-09-05T05:02:39.290Z,24
2017-09-05T05:03:19.748Z,24
2017-09-05T05:04:00.211Z,24
2017-09-05T05:04:40.655Z,28
2017-09-05T05:05:21.098Z,24
2017-09-05T05:06:01.552Z,24
2017-09-05T05:06:42.010Z,28
2017-09-05T05:07:22.443Z,28
2017-09-05T05:08:02.904Z,32
2017-09-05T05:08:43.363Z,28
2017-09-05T05:09:23.818Z,32
2017-09-05T05:10:04.277Z,32
2017-09-05T05:10:44.725Z,36
2017-09-05T05:11:25.173Z,36
2017-09-05T05:12:05.627Z,40
2017-09-05T05:12:46.067Z,40
2017-09-05T05:13:26.519Z,40
2017-09-05T05:14:06.977Z,44
2017-09-05T05:14:47.442Z,48
2017-09-05T05:15:27.899Z,48
2017-09-05T05:16:08.360Z,48
2017-09-05T05:16:48.815Z,52
2017-09-05T05:17:29.268Z,52
2017-09-05T05:18:09.710Z,52
2017-09-05T05:18:50.170Z,56
2017-09-05T05:19:30.628Z,60
2017-09-05T05:20:11.081Z,60
2017-09-05T05:20:51.836Z,64
2017-09-05T05:21:32.231Z,72
2017-09-05T05:22:12.685Z,80
2017-09-05T05:22:53.134Z,80
2017-09-05T05:23:33.578Z,80
2017-09-05T05:24:14.033Z,84
2017-09-05T05:24:54.487Z,84
2017-09-05T05:25:34.938Z,84
2017-09-05T05:26:15.400Z,88
2017-09-05T05:26:55.853Z,92
2017-09-05T05:27:36.306Z,92
2017-09-05T05:28:16.755Z,100
2017-09-05T05:28:57.216Z,104
2017-09-05T05:31:10.109Z,124
2017-09-05T05:31:50.565Z,132
2017-09-05T05:32:31.015Z,140
2017-09-05T05:35:04.519Z,148
2017-09-05T05:35:44.965Z,152
2017-09-05T05:36:25.419Z,152
2017-09-05T05:37:05.871Z,152
2017-09-05T05:37:46.329Z,156
2017-09-05T05:38:26.781Z,164
2017-09-05T05:39:07.220Z,176
2017-09-05T05:39:47.672Z,188
2017-09-05T05:40:28.134Z,200
2017-09-05T05:41:08.574Z,216
2017-09-05T05:41:49.029Z,224
2017-09-05T05:42:29.529Z,232
2017-09-05T05:43:09.932Z,236
2017-09-05T05:43:50.382Z,240
2017-09-05T05:44:30.874Z,240
2017-09-05T05:45:11.322Z,240
2017-09-05T05:45:51.769Z,240
2017-09-05T05:46:32.229Z,236
2017-09-05T05:47:12.684Z,232
2017-09-05T05:47:53.125Z,228
2017-09-05T05:48:33.584Z,228
2017-09-05T05:49:14.032Z,228
2017-09-05T05:49:54.491Z,228
2017-09-05T05:50:34.950Z,232
2017-09-05T05:51:15.414Z,228
2017-09-05T05:51:55.863Z,224
2017-09-05T05:52:36.321Z,216
2017-09-05T05:53:16.828Z,212
2017-09-05T05:53:57.297Z,204
2017-09-05T05:54:37.746Z,196
2017-09-05T05:55:18.266Z,196
2017-09-05T05:55:58.723Z,192
2017-09-05T05:56:39.181Z,192
2017-09-05T05:57:19.768Z,196
2017-09-05T05:58:00.227Z,200
2017-09-05T05:58:40.682Z,208
2017-09-05T05:59:21.199Z,212
2017-09-05T06:00:01.654Z,216
2017-09-05T06:00:42.109Z,220
2017-09-05T06:01:22.656Z,228
2017-09-05T06:02:03.103Z,228
2017-09-05T06:02:43.558Z,228
2017-09-05T06:03:24.468Z,224
2017-09-05T06:04:04.960Z,224
2017-09-05T06:04:45.434Z,228
2017-09-05T06:05:25.888Z,236
2017-09-05T06:06:06.337Z,240
2017-09-05T06:06:46.785Z,252
2017-09-05T06:07:27.240Z,268
2017-09-05T06:08:07.690Z,288
2017-09-05T06:08:48.142Z,308
2017-09-05T06:09:28.595Z,336
2017-09-05T06:10:09.055Z,352
2017-09-05T06:10:49.501Z,368
2017-09-05T06:11:29.961Z,384
2017-09-05T06:12:10.428Z,400
2017-09-05T06:12:50.891Z,408
2017-09-05T06:13:31.354Z,420
2017-09-05T06:14:11.806Z,432
2017-09-05T06:14:52.259Z,444
2017-09-05T06:15:32.713Z,456
2017-09-05T06:16:13.208Z,468
2017-09-05T06:16:53.667Z,480
2017-09-05T06:17:34.124Z,484
2017-09-05T06:18:14.568Z,504
2017-09-05T06:18:55.027Z,532
2017-09-05T06:19:35.479Z,576
2017-09-05T06:20:15.933Z,596
2017-09-05T06:20:56.388Z,624
2017-09-05T06:21:36.839Z,740
2017-09-05T06:22:17.302Z,860
2017-09-05T06:22:57.750Z,880
2017-09-05T06:23:38.196Z,868
2017-09-05T06:24:18.647Z,1336
2017-09-05T06:24:59.107Z,1276
2017-09-05T06:25:39.568Z,988
2017-09-05T06:26:20.027Z,1184
2017-09-05T06:27:00.481Z,972
2017-09-05T06:27:40.934Z,1356
2017-09-05T06:28:21.418Z,1412
2017-09-05T06:29:01.968Z,1268
2017-09-05T06:29:42.421Z,1412
2017-09-05T06:30:22.873Z,1408
2017-09-05T06:31:03.329Z,1416
2017-09-05T06:31:43.781Z,1436
2017-09-05T06:32:24.233Z,1464
2017-09-05T06:33:04.686Z,1268
2017-09-05T06:33:45.145Z,1112
2017-09-05T06:34:25.597Z,1300
2017-09-05T06:35:06.054Z,1332
2017-09-05T06:35:46.510Z,1264
2017-09-05T06:36:26.968Z,1592
2017-09-05T06:37:07.426Z,1604
2017-09-05T06:37:47.879Z,1488
2017-09-05T06:38:28.329Z,1000
2017-09-05T06:39:08.785Z,1604
2017-09-05T06:39:49.241Z,1648
2017-09-05T06:40:29.698Z,1628
2017-09-05T06:43:02.892Z,1732
2017-09-05T06:43:43.359Z,1768
2017-09-05T06:44:23.802Z,1800
2017-09-05T06:45:04.236Z,1840
2017-09-05T06:45:44.692Z,1680
2017-09-05T06:46:25.157Z,1888
2017-09-05T06:47:05.602Z,1968
2017-09-05T06:47:46.064Z,1964
2017-09-05T06:48:26.519Z,2036
2017-09-05T06:49:06.978Z,2052
2017-09-05T06:49:47.431Z,1476
2017-09-05T06:50:27.892Z,1684
2017-09-05T06:51:08.338Z,1332
2017-09-05T06:51:48.796Z,1304
2017-09-05T06:52:29.244Z,1280
2017-09-05T06:53:09.703Z,924
2017-09-05T06:53:50.159Z,1076
2017-09-05T06:54:30.607Z,1064
2017-09-05T06:55:11.072Z,1008
2017-09-05T06:55:51.522Z,1204
2017-09-05T06:56:31.985Z,1172
2017-09-05T06:57:12.427Z,1044
2017-09-05T06:57:52.868Z,1060
2017-09-05T06:58:33.333Z,1056
2017-09-05T06:59:13.764Z,1392
2017-09-05T06:59:54.204Z,1488
2017-09-05T07:00:34.658Z,2208
2017-09-05T07:01:15.097Z,1372
2017-09-05T07:01:55.550Z,1632
2017-09-05T07:02:36.006Z,1676
2017-09-05T07:03:16.463Z,1568
2017-09-05T07:03:56.901Z,1912
2017-09-05T07:04:37.357Z,1984
2017-09-05T07:05:17.893Z,2368
2017-09-05T07:05:58.345Z,2348
2017-09-05T07:06:38.796Z,1768
2017-09-05T07:07:19.246Z,1116
2017-09-05T07:07:59.709Z,920
2017-09-05T07:08:40.158Z,816
2017-09-05T07:09:20.608Z,872
2017-09-05T07:10:01.062Z,888
2017-09-05T07:10:41.513Z,808
2017-09-05T07:11:21.968Z,772
2017-09-05T07:12:02.439Z,756
2017-09-05T07:12:42.875Z,756
2017-09-05T07:15:00.928Z,820
2017-09-05T07:15:41.406Z,880
2017-09-05T07:16:21.859Z,1060
2017-09-05T07:17:02.316Z,1008
2017-09-05T07:17:42.772Z,1096
2017-09-05T07:18:23.224Z,1120
2017-09-05T07:19:03.672Z,960
2017-09-05T07:19:44.125Z,864
2017-09-05T07:20:24.578Z,860
2017-09-05T07:21:05.039Z,1496
2017-09-05T07:21:45.505Z,760
2017-09-05T07:22:25.960Z,740
2017-09-05T07:23:06.409Z,808
2017-09-05T07:23:46.860Z,2868
2017-09-05T07:24:27.318Z,880
2017-09-05T07:25:07.766Z,940
2017-09-05T07:25:48.229Z,1364
2017-09-05T07:26:28.672Z,1188
2017-09-05T07:27:09.128Z,1328
2017-09-05T07:27:49.598Z,1224
2017-09-05T07:28:30.033Z,2608
2017-09-05T07:29:10.474Z,1676
2017-09-05T07:29:50.950Z,1368
2017-09-05T07:30:31.396Z,1300
2017-09-05T07:31:11.843Z,1012
2017-09-05T07:31:52.300Z,908
2017-09-05T07:32:32.758Z,904
2017-09-05T07:33:13.215Z,924
2017-09-05T07:33:53.672Z,1060
2017-09-05T07:34:34.129Z,1316
2017-09-05T07:35:14.581Z,1184
2017-09-05T07:35:55.041Z,1120
2017-09-05T07:36:35.493Z,2452
2017-09-05T07:37:15.943Z,2716
2017-09-05T07:37:56.389Z,1728
2017-09-05T07:38:36.856Z,2476
2017-09-05T07:39:17.360Z,2972
2017-09-05T07:39:57.810Z,3072
2017-09-05T07:40:38.349Z,3156
2017-09-05T07:41:18.872Z,3152
2017-09-05T07:41:59.320Z,3152
2017-09-05T07:42:39.774Z,3144
2017-09-05T07:43:20.219Z,3136
2017-09-05T07:44:00.677Z,3140
2017-09-05T07:44:41.112Z,3144
2017-09-05T07:45:21.648Z,3140
2017-09-05T07:46:02.100Z,3164
2017-09-05T07:46:42.541Z,3148
2017-09-05T07:47:23.009Z,3172
2017-09-05T07:48:03.457Z,3208
2017-09-05T07:48:43.914Z,3220
2017-09-05T07:49:24.364Z,3232
2017-09-05T07:50:04.815Z,3224
2017-09-05T07:50:45.260Z,3228
2017-09-05T07:51:25.707Z,3260
2017-09-05T07:52:06.202Z,3280
2017-09-05T07:52:47.049Z,3284
2017-09-05T07:54:44.742Z,3324
2017-09-05T07:55:25.193Z,3332
2017-09-05T07:56:05.646Z,3328
2017-09-05T07:56:46.105Z,3356
2017-09-05T07:57:26.564Z,3372
2017-09-05T07:58:07.017Z,3396
2017-09-05T07:58:47.466Z,3412
2017-09-05T07:59:27.915Z,3440
2017-09-05T08:00:08.372Z,3464
2017-09-05T08:00:48.818Z,3504
2017-09-05T08:01:29.279Z,3268
2017-09-05T08:02:09.734Z,3200
2017-09-05T08:02:50.195Z,3048
2017-09-05T08:03:30.650Z,2892
2017-09-05T08:04:11.106Z,2612
2017-09-05T08:04:51.562Z,3144
2017-09-05T08:05:32.015Z,2560
2017-09-05T08:07:49.884Z,3468
2017-09-05T08:08:30.338Z,3148
2017-09-05T08:09:10.790Z,3292
2017-09-05T08:09:51.241Z,3440
2017-09-05T08:10:31.696Z,3456
2017-09-05T08:11:12.161Z,3804
2017-09-05T08:11:52.618Z,3588
2017-09-05T08:12:33.064Z,3888
2017-09-05T08:13:13.518Z,3844
2017-09-05T08:13:53.972Z,3844
2017-09-05T08:14:34.430Z,3848
2017-09-05T08:15:14.886Z,3852
2017-09-05T08:15:55.347Z,3852
2017-09-05T08:16:35.812Z,3868
2017-09-05T08:17:16.262Z,3912
2017-09-05T08:17:56.713Z,3964
2017-09-05T08:18:37.162Z,3980
2017-09-05T08:19:17.612Z,4088
2017-09-05T08:19:58.074Z,2872
2017-09-05T08:20:38.528Z,4356
2017-09-05T08:21:18.981Z,4324
2017-09-05T08:21:59.440Z,3692
2017-09-05T08:22:39.891Z,4460
2017-09-05T08:23:20.349Z,4508
2017-09-05T08:24:00.795Z,4464
2017-09-05T08:24:41.260Z,2360
2017-09-05T08:25:21.762Z,2448
2017-09-05T08:26:02.213Z,4728
2017-09-05T08:26:42.670Z,4544
2017-09-05T08:27:23.129Z,4492
2017-09-05T08:28:03.582Z,4428
2017-09-05T08:28:44.041Z,4420
2017-09-05T08:29:24.497Z,4348
2017-09-05T08:30:04.958Z,4380
2017-09-05T08:30:45.407Z,2776
2017-09-05T08:31:25.860Z,4464
2017-09-05T08:32:06.307Z,4420
2017-09-05T08:32:46.761Z,4292
2017-09-05T08:33:27.222Z,4272
2017-09-05T08:34:07.658Z,4288
2017-09-05T08:34:48.112Z,4288
2017-09-05T08:35:28.572Z,4284
2017-09-05T08:36:09.031Z,4284
2017-09-05T08:36:49.495Z,4284
2017-09-05T08:37:29.946Z,4316
2017-09-05T08:38:10.404Z,4320
2017-09-05T08:38:50.855Z,4336
2017-09-05T08:39:31.309Z,4348
2017-09-05T08:40:11.755Z,4356
2017-09-05T08:40:52.201Z,4388
2017-09-05T08:41:32.655Z,4396
2017-09-05T08:42:13.109Z,4400
2017-09-05T08:42:53.566Z,4420
2017-09-05T08:43:34.029Z,4392
2017-09-05T08:44:14.489Z,4408
2017-09-05T08:44:54.940Z,4440
2017-09-05T08:45:35.396Z,4488
2017-09-05T08:46:15.848Z,3948
2017-09-05T08:46:56.303Z,4212
2017-09-05T08:47:36.754Z,4356
2017-09-05T08:48:17.212Z,4332
2017-09-05T08:48:57.658Z,4392
2017-09-05T08:49:38.207Z,4444
2017-09-05T08:50:18.657Z,4460
2017-09-05T08:50:59.106Z,4480
2017-09-05T08:51:39.544Z,4504
2017-09-05T08:52:20.001Z,4512
2017-09-05T08:53:00.472Z,4516
2017-09-05T08:53:40.997Z,4504
2017-09-05T08:54:21.468Z,4500
2017-09-05T08:55:01.929Z,4520
2017-09-05T08:55:42.376Z,4516
2017-09-05T08:56:22.836Z,4516
2017-09-05T08:57:03.291Z,4524
2017-09-05T08:57:43.744Z,4544
2017-09-05T08:58:24.207Z,4536
2017-09-05T08:59:04.662Z,4548
2017-09-05T08:59:45.113Z,4552
2017-09-05T09:00:25.573Z,4552
2017-09-05T09:01:06.026Z,4564
2017-09-05T09:01:46.480Z,4564
2017-09-05T09:02:26.927Z,4576
2017-09-05T09:03:07.388Z,4552
2017-09-05T09:03:47.840Z,4592
2017-09-05T09:04:28.299Z,4604
2017-09-05T09:05:08.767Z,4612
2017-09-05T09:05:49.340Z,4616
2017-09-05T09:06:29.805Z,4636
2017-09-05T09:07:10.257Z,4656
2017-09-05T09:07:50.713Z,4676
2017-09-05T09:08:31.157Z,4644
2017-09-05T09:09:11.617Z,4600
2017-09-05T09:09:52.068Z,4592
2017-09-05T09:10:32.520Z,4636
2017-09-05T09:11:12.975Z,4668
2017-09-05T09:11:53.438Z,4704
2017-09-05T09:12:33.888Z,4740
2017-09-05T09:13:14.343Z,4764
2017-09-05T09:13:54.796Z,4776
2017-09-05T09:14:35.254Z,4776
2017-09-05T09:15:15.708Z,4780
2017-09-05T09:15:56.163Z,4780
2017-09-05T09:16:36.615Z,4732
2017-09-05T09:17:17.071Z,4452
2017-09-05T09:17:57.524Z,4508
2017-09-05T09:18:37.978Z,4536
2017-09-05T09:19:18.432Z,4684
2017-09-05T09:19:58.885Z,4756
2017-09-05T09:20:39.348Z,4780
2017-09-05T09:21:19.802Z,4812
2017-09-05T09:22:00.251Z,4824
2017-09-05T09:22:40.720Z,4844
2017-09-05T09:23:21.159Z,4852
2017-09-05T09:24:01.617Z,4872
2017-09-05T09:24:42.072Z,4884
2017-09-05T09:25:22.528Z,4900
2017-09-05T09:26:03.017Z,4920
2017-09-05T09:26:43.474Z,4948
2017-09-05T09:27:23.932Z,4980
2017-09-05T09:28:04.379Z,4984
2017-09-05T09:28:44.839Z,4972
2017-09-05T09:29:25.294Z,4988
2017-09-05T09:30:05.893Z,5052
2017-09-05T09:30:46.353Z,5084
2017-09-05T09:31:26.804Z,5128
2017-09-05T09:32:07.251Z,5196
2017-09-05T09:32:47.722Z,5252
2017-09-05T09:33:28.178Z,5276
2017-09-05T09:36:01.397Z,5120
2017-09-05T09:36:41.798Z,5048
2017-09-05T09:37:22.256Z,4996
2017-09-05T09:38:02.711Z,4984
2017-09-05T09:38:43.172Z,4992
2017-09-05T09:39:23.621Z,4980
2017-09-05T09:40:04.090Z,4968
2017-09-05T09:40:44.573Z,4956
2017-09-05T09:41:25.024Z,4924
2017-09-05T09:42:05.490Z,4876
2017-09-05T09:42:45.937Z,4880
2017-09-05T09:43:26.385Z,4892
2017-09-05T09:44:06.917Z,4880
2017-09-05T09:44:47.378Z,4896
2017-09-05T09:45:27.827Z,4928